Flight Track Log - Related Links

Times and Time Zones

All times are in EDT time to prevent confusion due to time zone crossing. See the UAL495 flight status page for this flight to view local times or setup timezone preferences in your user account.

Time Position Orientation Groundspeed Altitude Reporting Facility
EDT Latitude Longitude Course Direction KTS MPH feet Rate Location/Type
Fri 08:57:24 AM 33.9092 -118.4697 90° East 223 257 2,500  Level Los Angeles Center
Fri 08:58:25 AM 33.8497 -118.5000 203° Southwest 248 285 5,100 2,876 Climbing Los Angeles Center
Fri 08:59:00 AM 33.7856 -118.6474 132° Southeast  Level FlightAware Approximate
Fri 08:59:25 AM 33.7703 -118.5100 186° South 280 322 8,300  Level Los Angeles Center
Fri 09:00:00 AM 33.7074 -118.5467 134° Southeast  Level FlightAware Approximate
Fri 09:00:26 AM 33.6939 -118.4964 172° South 300 345 10,700  Level Los Angeles Center
Fri 09:01:00 AM 33.6676 -118.4224 101° East  Level FlightAware Approximate
Fri 09:01:26 AM 33.6811 -118.3894 98° East 347 399 12,000  Level Los Angeles Center
Fri 09:02:00 AM 33.6334 -118.2940 90° East  Level FlightAware Approximate
Fri 09:02:27 AM 33.7169 -118.2731 70° East 382 440 14,500  Level Los Angeles Center
Fri 09:03:27 AM 33.7622 -118.1272 69° East 394 453 17,400 2,529 Climbing Los Angeles Center
Fri 09:04:28 AM 33.8278 -118.0139 55° Northeast 417 480 19,600 2,083 Climbing Los Angeles Center
Fri 09:05:28 AM 33.9219 -117.9303 36° Northeast 425 489 21,600 1,934 Climbing Los Angeles Center
Fri 09:06:29 AM 34.0197 -117.8428 37° Northeast 435 501 23,500 1,785 Climbing Los Angeles Center
Fri 09:07:29 AM 34.1178 -117.7444 40° Northeast 454 522 25,200 1,686 Climbing Los Angeles Center
Fri 09:08:30 AM 34.2053 -117.6292 47° Northeast 465 535 26,900 1,537 Climbing Los Angeles Center
Fri 09:09:30 AM 34.2975 -117.5136 46° Northeast 477 549 28,300 1,537 Climbing Los Angeles Center
Fri 09:10:31 AM 34.3914 -117.3919 47° Northeast 486 559 30,000 1,770 Climbing Los Angeles Center
Fri 09:11:32 AM 34.4822 -117.2739 47° Northeast 483 556 31,900 1,686 Climbing Los Angeles Center
Fri 09:12:32 AM 34.5719 -117.1569 47° Northeast 478 550 33,400 1,388 Climbing Los Angeles Center
Fri 09:13:33 AM 34.6622 -117.0397 47° Northeast 480 552 34,700 1,180 Climbing Los Angeles Center
Fri 09:14:34 AM 34.7522 -116.9228 47° Northeast 477 549 35,800 1,082 Climbing Los Angeles Center
Fri 09:15:35 AM 34.8425 -116.8053 47° Northeast 478 550 36,900 595 Climbing Los Angeles Center
Fri 09:16:35 AM 34.9322 -116.6881 47° Northeast 477 549 37,000 50 Climbing Los Angeles Center
Fri 09:17:36 AM 35.0222 -116.5703 47° Northeast 477 549 37,000  Level Los Angeles Center
Fri 09:18:37 AM 35.1328 -116.4269 47° Northeast 483 556 37,000  Level Los Angeles Center
Fri 09:19:38 AM 35.2228 -116.3072 47° Northeast 481 554 37,000  Level Los Angeles Center
Fri 09:20:39 AM 35.3131 -116.1881 47° Northeast 480 552 37,000  Level Los Angeles Center
Fri 09:21:40 AM 35.4017 -116.0681 48° Northeast 477 549 37,000  Level Los Angeles Center
Fri 09:22:41 AM 35.4931 -115.9506 46° Northeast 477 549 37,000  Level Los Angeles Center
Fri 09:23:42 AM 35.5869 -115.8233 48° Northeast 470 541 37,000  Level Los Angeles Center
Fri 09:24:43 AM 35.6744 -115.7064 47° Northeast 465 535 37,000  Level Los Angeles Center
Fri 09:25:56 AM 35.7606 -115.5906 47° Northeast 462 532 37,000  Level Los Angeles Center
Fri 09:26:57 AM 35.8647 -115.4511 47° Northeast 463 533 37,000  Level Los Angeles Center
Fri 09:27:58 AM 35.9508 -115.3342 48° Northeast 463 533 37,000  Level Los Angeles Center
Fri 09:29:00 AM 36.0350 -115.2189 48° Northeast 457 526 37,000  Level Los Angeles Center
Fri 09:30:01 AM 36.1028 -115.0853 58° Northeast 464 534 37,000  Level Los Angeles Center
Fri 09:31:02 AM 36.1569 -114.9056 69° East 467 537 37,000  Level Los Angeles Center
Fri 09:32:03 AM 36.2017 -114.7553 70° East 467 537 37,000  Level Los Angeles Center
Fri 09:33:05 AM 36.2475 -114.6064 69° East 464 534 37,000  Level Los Angeles Center
Fri 09:34:06 AM 36.2928 -114.4572 69° East 463 533 37,000  Level Los Angeles Center
Fri 09:35:07 AM 36.3372 -114.3092 70° East 461 531 37,000  Level Los Angeles Center
Fri 09:36:08 AM 36.3814 -114.1589 70° East 463 533 37,000  Level Los Angeles Center
Fri 09:37:10 AM 36.4261 -114.0100 69° East 462 532 37,000  Level Los Angeles Center
Fri 09:38:11 AM 36.4719 -113.8614 69° East 461 531 37,000  Level Los Angeles Center
Fri 09:39:12 AM 36.5225 -113.6900 70° East 463 533 37,000  Level Los Angeles Center
Fri 09:40:14 AM 36.5658 -113.5411 70° East 461 531 37,000  Level Los Angeles Center
Fri 09:41:15 AM 36.6097 -113.3903 70° East 465 535 37,000  Level Los Angeles Center
Fri 09:42:17 AM 36.6542 -113.2425 69° East 460 529 37,000  Level Los Angeles Center
Fri 09:43:18 AM 36.6964 -113.0936 70° East 458 527 37,000  Level Los Angeles Center
Fri 09:44:20 AM 36.7392 -112.9442 70° East 461 531 37,000  Level Los Angeles Center
Fri 09:45:21 AM 36.7900 -112.7675 70° East 455 524 37,000  Level Los Angeles Center
Fri 09:46:23 AM 36.8325 -112.6197 70° East 456 525 37,000  Level Los Angeles Center
Fri 09:47:25 AM 36.8739 -112.4733 70° East 452 520 37,000  Level Los Angeles Center
Fri 09:48:26 AM 36.9153 -112.3286 70° East 447 514 37,000  Level Los Angeles Center
Fri 09:49:28 AM 36.9564 -112.1811 71° East 451 519 37,000  Level Los Angeles Center
Fri 09:50:30 AM 36.9975 -112.0358 70° East 448 516 37,000  Level Los Angeles Center
Fri 09:51:28 AM 37.0397 -111.8886 70° East 450 518 37,000  Level Denver Center
Fri 09:52:29 AM 37.0808 -111.7406 71° East 453 521 37,000  Level Denver Center
Fri 09:53:30 AM 37.1222 -111.5919 71° East 453 521 37,000  Level Denver Center
Fri 09:54:31 AM 37.1667 -111.4164 72° East 444 511 37,000  Level Denver Center
Fri 09:55:33 AM 37.2081 -111.2681 71° East 451 519 37,000  Level Denver Center
Fri 09:56:34 AM 37.2472 -111.1189 72° East 452 520 37,000  Level Denver Center
Fri 09:57:35 AM 37.2883 -110.9694 71° East 456 525 37,000  Level Denver Center
Fri 09:58:37 AM 37.3272 -110.8200 72° East 453 521 37,000  Level Denver Center
Fri 09:59:38 AM 37.3675 -110.6697 71° East 455 524 37,000  Level Denver Center
Fri 10:00:39 AM 37.4078 -110.5186 71° East 456 525 37,000  Level Denver Center
Fri 10:01:41 AM 37.4467 -110.3681 72° East 455 524 37,000  Level Denver Center
Fri 10:02:42 AM 37.4939 -110.1867 72° East 458 527 37,000  Level Denver Center
Fri 10:03:43 AM 37.5306 -110.0414 72° East 455 524 37,000  Level Denver Center
Fri 10:04:45 AM 37.5694 -109.8953 71° East 458 527 37,000  Level Denver Center
Fri 10:05:46 AM 37.6125 -109.7250 72° East 457 526 37,000  Level Denver Center
Fri 10:06:47 AM 37.6489 -109.5797 72° East 454 522 37,000  Level Denver Center
Fri 10:07:49 AM 37.6908 -109.4106 73° East 452 520 37,000  Level Denver Center
Fri 10:08:50 AM 37.7278 -109.2653 72° East 452 520 37,000  Level Denver Center
Fri 10:09:52 AM 37.7642 -109.1183 73° East 455 524 37,000  Level Denver Center
Fri 10:10:53 AM 37.8064 -108.9494 72° East 452 520 37,000  Level Denver Center
Fri 10:11:55 AM 37.8619 -108.8256 60° Northeast 426 490 37,000  Level Denver Center
Fri 10:12:56 AM 37.9300 -108.6869 58° Northeast 415 478 37,000  Level Denver Center
Fri 10:13:58 AM 37.9883 -108.5667 58° Northeast 418 481 37,000  Level Denver Center
Fri 10:14:59 AM 38.0456 -108.4461 59° Northeast 417 480 37,000  Level Denver Center
Fri 10:16:01 AM 38.1133 -108.3036 59° Northeast 417 480 37,000  Level Denver Center
Fri 10:17:02 AM 38.1700 -108.1861 58° Northeast 411 473 37,000  Level Denver Center
Fri 10:18:04 AM 38.2361 -108.0461 59° Northeast 413 475 37,000  Level Denver Center
Fri 10:19:06 AM 38.2950 -107.9261 58° Northeast 417 480 37,000  Level Denver Center
Fri 10:20:07 AM 38.3533 -107.8039 59° Northeast 420 483 37,000 -585 Level Denver Center
Fri 10:21:09 AM 38.4203 -107.6606 59° Northeast 422 486 35,800 -1,059 Descending Denver Center
Fri 10:22:23 AM 38.4781 -107.5381 59° Northeast 422 486 34,600 -1,235 Descending Denver Center
Fri 10:23:25 AM 38.5544 -107.3664 60° Northeast 431 496 33,000 -1,210 Descending Denver Center
Fri 10:24:27 AM 38.6189 -107.2200 61° Northeast 426 490 32,100 -919 Descending Denver Center
Fri 10:25:29 AM 38.6706 -107.1044 60° Northeast 421 484 31,100 -1,065 Descending Denver Center
Fri 10:26:31 AM 38.7275 -106.9764 60° Northeast 415 478 29,900 -1,016 Descending Denver Center
Fri 10:27:33 AM 38.7844 -106.8492 60° Northeast 413 475 29,000 -435 Descending Denver Center
Fri 10:28:35 AM 38.8519 -106.6953 61° Northeast 415 478 29,000  Level Denver Center
Fri 10:29:36 AM 38.9117 -106.5653 59° Northeast 416 479 29,000  Level Denver Center
Fri 10:30:38 AM 38.9669 -106.4442 60° Northeast 412 474 29,000 -48 Level Denver Center
Fri 10:31:40 AM 39.0328 -106.3019 59° Northeast 414 476 28,900 -726 Descending Denver Center
Fri 10:32:42 AM 39.0883 -106.1792 60° Northeast 415 478 27,500 -1,210 Descending Denver Center
Fri 10:33:44 AM 39.1450 -106.0494 61° Northeast 398 458 26,400 -725 Descending Denver Center
Fri 10:35:11 AM 39.2086 -105.9064 60° Northeast 393 452 25,700 -725 Descending Denver Center
Fri 10:36:13 AM 39.2797 -105.7442 60° Northeast 386 444 24,600 -1,113 Descending Denver Center
Fri 10:37:15 AM 39.3317 -105.6244 61° Northeast 381 438 23,400 -1,306 Descending Denver Center
Fri 10:38:17 AM 39.3842 -105.5061 60° Northeast 377 434 21,900 -1,452 Descending Denver Center
Fri 10:39:19 AM 39.4397 -105.3964 57° Northeast 348 400 20,400 -1,584 Descending Denver Center
Fri 10:40:22 AM 39.4953 -105.2922 55° Northeast 328 377 18,600 -1,597 Descending Denver Center
Fri 10:41:23 AM 39.5456 -105.1961 56° Northeast 321 369 17,100 -1,268 Descending Denver Center
Fri 10:42:25 AM 39.5972 -105.0967 56° Northeast 308 354 16,000 -876 Descending Denver Center
Fri 10:43:40 AM 39.6544 -104.9872 56° Northeast 299 344 15,100 -788 Descending Denver Center
Fri 10:44:42 AM 39.6994 -104.8994 56° Northeast 287 330 14,200 -968 Descending Denver Center
Fri 10:45:44 AM 39.7378 -104.7933 65° Northeast 311 358 13,100 -1,016 Descending Denver Center
Fri 10:46:46 AM 39.7628 -104.6925 72° East 298 343 12,100 -1,016 Descending Denver Center
Fri 10:47:48 AM 39.7839 -104.5839 76° East 294 338 11,000 -532 Descending Denver Center
Fri 10:48:50 AM 39.7808 -104.4883 92° East 261 300 11,000 -532 Level Denver Center
Fri 10:49:52 AM 39.7817 -104.4036 89° East 218 251 9,900 -1,016 Descending Denver Center
Fri 10:50:54 AM 39.8319 -104.3883 13° North 191 220 8,900 -968 Descending Denver Center

Login

Don't have an account? Register now (free) for customized features, flight alerts, and more!